createdAt,value
2023-05-11T00:00:34.846Z,99.90
2023-05-11T00:03:06.386Z,99.90
2023-05-11T00:05:40.110Z,99.90
2023-05-11T00:08:11.141Z,99.90
2023-05-11T00:10:42.063Z,99.90
2023-05-11T00:13:12.949Z,99.90
2023-05-11T00:15:43.966Z,99.90
2023-05-11T00:18:15.032Z,99.90
2023-05-11T00:20:48.913Z,99.90
2023-05-11T00:23:19.826Z,99.90
2023-05-11T00:25:50.738Z,99.90
2023-05-11T00:28:22.978Z,99.90
2023-05-11T00:30:58.121Z,99.90
2023-05-11T00:33:29.208Z,99.90
2023-05-11T00:36:02.795Z,99.90
2023-05-11T00:38:34.835Z,99.90
2023-05-11T00:41:05.954Z,99.90
2023-05-11T00:43:36.936Z,99.90
2023-05-11T00:46:08.413Z,99.90
2023-05-11T00:48:39.336Z,99.90
2023-05-11T00:51:14.008Z,99.90
2023-05-11T00:53:45.055Z,99.90
2023-05-11T00:56:16.210Z,99.90
2023-05-11T00:58:47.264Z,99.90
2023-05-11T01:01:18.920Z,99.90
2023-05-11T01:03:50.893Z,99.90
2023-05-11T01:06:32.474Z,99.90
2023-05-11T01:09:06.952Z,99.90
2023-05-11T01:11:46.191Z,99.90
2023-05-11T01:14:23.217Z,99.90
2023-05-11T01:17:02.123Z,99.90
2023-05-11T01:19:44.233Z,99.90
2023-05-11T01:22:33.915Z,99.90
2023-05-11T01:25:16.565Z,99.90
2023-05-11T01:28:11.592Z,99.90
2023-05-11T01:30:51.458Z,99.90
2023-05-11T01:33:28.018Z,99.90
2023-05-11T01:36:06.602Z,99.90
2023-05-11T01:38:40.255Z,99.90
2023-05-11T01:41:16.158Z,99.90
2023-05-11T01:43:51.896Z,99.90
2023-05-11T01:46:28.352Z,99.90
2023-05-11T01:49:01.027Z,99.90
2023-05-11T01:51:37.150Z,99.90
2023-05-11T01:54:12.661Z,99.90
2023-05-11T01:56:45.649Z,99.90
2023-05-11T01:59:19.415Z,99.90
2023-05-11T02:01:53.055Z,99.90
2023-05-11T02:04:24.974Z,99.90
2023-05-11T02:06:57.308Z,99.90
2023-05-11T02:09:28.969Z,99.90
2023-05-11T02:12:01.691Z,99.90
2023-05-11T02:14:35.117Z,99.90
2023-05-11T02:17:09.927Z,99.90
2023-05-11T02:19:42.707Z,99.90
2023-05-11T02:22:15.562Z,99.90
2023-05-11T02:24:47.294Z,99.90
2023-05-11T02:27:18.261Z,99.90
2023-05-11T02:29:49.322Z,99.90
2023-05-11T02:32:25.764Z,99.90
2023-05-11T02:35:02.839Z,99.90
2023-05-11T02:37:36.518Z,99.90
2023-05-11T02:40:17.279Z,99.90
2023-05-11T02:42:54.626Z,99.90
2023-05-11T02:45:27.211Z,99.90
2023-05-11T02:48:02.010Z,99.90
2023-05-11T02:50:34.487Z,99.90
2023-05-11T02:53:11.079Z,99.90
2023-05-11T02:55:42.281Z,99.90
2023-05-11T02:58:13.675Z,99.90
2023-05-11T03:00:44.721Z,99.90
2023-05-11T03:03:18.429Z,99.90
2023-05-11T03:05:49.453Z,99.90
2023-05-11T03:08:20.622Z,99.90
2023-05-11T03:10:53.204Z,99.90
2023-05-11T03:13:25.482Z,99.90
2023-05-11T03:15:57.547Z,99.90
2023-05-11T03:18:32.759Z,99.90
2023-05-11T03:21:04.466Z,99.90
2023-05-11T03:23:37.275Z,99.90
2023-05-11T03:26:11.207Z,99.90
2023-05-11T03:28:44.773Z,99.90
2023-05-11T03:31:15.751Z,99.90
2023-05-11T03:33:49.312Z,99.90
2023-05-11T03:36:22.900Z,99.90
2023-05-11T03:38:56.642Z,99.90
2023-05-11T03:41:29.346Z,99.90
2023-05-11T03:44:03.155Z,99.90
2023-05-11T03:46:37.343Z,99.90
2023-05-11T03:49:13.809Z,99.90
2023-05-11T03:51:45.538Z,99.90
2023-05-11T03:54:16.784Z,99.90
2023-05-11T03:56:47.973Z,99.90
2023-05-11T03:59:19.514Z,99.90
2023-05-11T04:01:53.162Z,99.90
2023-05-11T04:04:31.359Z,99.90
2023-05-11T04:07:02.591Z,99.90
2023-05-11T04:09:33.534Z,99.90
2023-05-11T04:12:04.378Z,99.90
2023-05-11T04:14:35.359Z,99.90
2023-05-11T04:17:06.175Z,99.90
2023-05-11T04:19:42.658Z,99.90
2023-05-11T04:22:13.864Z,99.90
2023-05-11T04:24:44.694Z,99.90
2023-05-11T04:27:16.566Z,99.90
2023-05-11T04:29:48.831Z,99.90
2023-05-11T04:32:20.975Z,99.90
2023-05-11T04:34:54.544Z,99.90
2023-05-11T04:37:25.628Z,99.90
2023-05-11T04:39:57.672Z,99.90
2023-05-11T04:42:28.825Z,99.90
2023-05-11T04:45:02.450Z,99.90
2023-05-11T04:47:34.891Z,99.90
2023-05-11T04:50:14.003Z,99.90
2023-05-11T04:52:44.884Z,99.90
2023-05-11T04:55:16.369Z,99.90
2023-05-11T04:57:47.227Z,99.90
2023-05-11T05:00:19.031Z,99.90
2023-05-11T05:02:50.921Z,99.90
2023-05-11T05:05:26.823Z,99.90
2023-05-11T05:07:57.773Z,99.90
2023-05-11T05:10:28.753Z,99.90
2023-05-11T05:12:59.758Z,99.90
2023-05-11T05:15:30.927Z,99.90
2023-05-11T05:18:01.989Z,99.90
2023-05-11T05:20:35.519Z,99.90
2023-05-11T05:23:06.381Z,99.90
2023-05-11T05:25:37.215Z,99.90
2023-05-11T05:28:08.068Z,99.90
2023-05-11T05:30:39.069Z,99.90
2023-05-11T05:33:10.021Z,99.90
2023-05-11T05:35:46.763Z,99.90
2023-05-11T05:38:17.737Z,99.90
2023-05-11T05:40:48.565Z,99.90
2023-05-11T05:43:19.555Z,99.90
2023-05-11T05:45:50.618Z,99.90
2023-05-11T05:48:21.501Z,99.90
2023-05-11T05:50:54.966Z,99.90
2023-05-11T05:53:25.824Z,99.90
2023-05-11T05:55:56.800Z,99.90
2023-05-11T05:58:27.705Z,99.90
2023-05-11T06:00:58.537Z,99.90
2023-05-11T06:03:30.008Z,99.90
2023-05-11T06:06:04.860Z,99.90
2023-05-11T06:08:35.793Z,99.90
2023-05-11T06:11:06.681Z,99.90
2023-05-11T06:13:37.633Z,99.90
2023-05-11T06:16:08.871Z,99.90
2023-05-11T06:18:39.783Z,99.90
2023-05-11T06:21:13.231Z,99.90
2023-05-11T06:23:44.077Z,99.90
2023-05-11T06:26:15.068Z,99.90
2023-05-11T06:28:46.016Z,99.90
2023-05-11T06:31:16.904Z,99.90
2023-05-11T06:33:47.751Z,99.90
2023-05-11T06:36:21.274Z,99.90
2023-05-11T06:38:52.219Z,99.90
2023-05-11T06:41:23.084Z,99.90
2023-05-11T06:43:56.449Z,99.90
2023-05-11T06:46:27.379Z,99.90
2023-05-11T06:48:58.364Z,99.90
2023-05-11T06:51:32.232Z,99.90
2023-05-11T06:54:03.164Z,99.90
2023-05-11T06:56:35.025Z,99.90
2023-05-11T06:59:05.892Z,99.90
2023-05-11T07:01:36.824Z,99.90
2023-05-11T07:04:08.005Z,99.90
2023-05-11T07:06:41.588Z,99.90
2023-05-11T07:09:12.817Z,99.90
2023-05-11T07:11:43.857Z,99.90
2023-05-11T07:14:17.239Z,99.90
2023-05-11T07:16:48.199Z,99.90
2023-05-11T07:19:19.128Z,99.90
2023-05-11T07:21:52.548Z,99.90
2023-05-11T07:24:23.393Z,99.90
2023-05-11T07:27:03.101Z,99.90
2023-05-11T07:29:33.943Z,99.90
2023-05-11T07:32:05.053Z,99.90
2023-05-11T07:34:36.877Z,99.90
2023-05-11T07:37:12.146Z,99.90
2023-05-11T07:39:42.993Z,99.90
2023-05-11T07:42:13.930Z,99.90
2023-05-11T07:44:44.889Z,99.90
2023-05-11T07:47:17.727Z,99.90
2023-05-11T07:49:48.824Z,99.90
2023-05-11T07:52:22.335Z,99.90
2023-05-11T07:54:53.243Z,99.90
2023-05-11T07:57:24.232Z,99.90
2023-05-11T07:59:55.478Z,99.90
2023-05-11T08:02:26.429Z,99.90
2023-05-11T08:04:57.903Z,99.90
2023-05-11T08:07:31.530Z,99.90
2023-05-11T08:10:02.390Z,99.90
2023-05-11T08:12:33.601Z,95.50
2023-05-11T08:15:04.636Z,92.50
2023-05-11T08:17:35.821Z,89.00
2023-05-11T08:20:07.031Z,73.90
2023-05-11T08:22:40.592Z,88.80
2023-05-11T08:25:12.217Z,82.10
2023-05-11T08:27:43.054Z,82.50
2023-05-11T08:30:18.039Z,73.30
2023-05-11T08:32:58.061Z,68.00
2023-05-11T08:35:30.444Z,69.30
2023-05-11T08:38:04.030Z,61.00
2023-05-11T08:40:34.957Z,63.10
2023-05-11T08:43:08.477Z,64.80
2023-05-11T08:45:41.077Z,64.10
2023-05-11T08:48:12.279Z,63.10
2023-05-11T08:50:43.133Z,63.60
2023-05-11T08:53:18.229Z,63.60
2023-05-11T08:55:50.512Z,64.50
2023-05-11T08:58:22.538Z,61.40
2023-05-11T09:00:53.865Z,62.00
2023-05-11T09:03:25.217Z,59.20
2023-05-11T09:05:56.563Z,57.40
2023-05-11T09:08:34.352Z,58.40
2023-05-11T09:11:06.391Z,60.00
2023-05-11T09:13:37.648Z,59.70
2023-05-11T09:16:20.456Z,65.10
2023-05-11T09:19:03.564Z,57.40
2023-05-11T09:21:35.141Z,57.10
2023-05-11T09:24:09.682Z,58.40
2023-05-11T09:26:40.562Z,58.40
2023-05-11T09:29:11.834Z,60.30
2023-05-11T09:31:44.486Z,63.10
2023-05-11T09:34:18.084Z,65.70
2023-05-11T09:36:51.266Z,58.70
2023-05-11T09:39:37.818Z,58.20
2023-05-11T09:42:18.565Z,55.30
2023-05-11T09:44:50.497Z,51.20
2023-05-11T09:47:24.041Z,50.00
2023-05-11T09:49:55.390Z,47.60
2023-05-11T09:52:29.391Z,49.70
2023-05-11T09:55:13.493Z,46.40
2023-05-11T09:57:44.266Z,50.20
2023-05-11T10:00:18.865Z,43.40
2023-05-11T10:03:01.421Z,43.40
2023-05-11T10:05:35.285Z,43.40
2023-05-11T10:08:07.769Z,42.90
2023-05-11T10:10:41.270Z,44.60
2023-05-11T10:13:12.194Z,41.30
2023-05-11T10:15:43.577Z,40.50
2023-05-11T10:18:20.090Z,45.00
2023-05-11T10:20:51.552Z,44.00
2023-05-11T10:23:23.689Z,39.50
2023-05-11T10:25:58.058Z,37.40
2023-05-11T10:28:30.995Z,40.20
2023-05-11T10:31:02.896Z,38.90
2023-05-11T10:33:35.318Z,38.00
2023-05-11T10:36:06.885Z,36.60
2023-05-11T10:38:37.897Z,34.60
2023-05-11T10:41:44.987Z,36.40
2023-05-11T10:44:50.105Z,37.60
2023-05-11T10:47:40.182Z,36.70
2023-05-11T10:50:43.323Z,37.00
2023-05-11T10:53:32.107Z,30.20
2023-05-11T10:56:17.087Z,35.00
2023-05-11T10:59:04.509Z,37.20
2023-05-11T11:01:41.111Z,33.90
2023-05-11T11:04:13.908Z,36.40
2023-05-11T11:06:45.936Z,33.20
2023-05-11T11:09:18.276Z,32.60
2023-05-11T11:11:52.374Z,30.60
2023-05-11T11:14:26.406Z,28.80
2023-05-11T11:17:25.253Z,32.00
2023-05-11T11:19:57.601Z,28.80
2023-05-11T11:22:47.733Z,29.80
2023-05-11T11:25:39.668Z,31.80
2023-05-11T11:28:13.583Z,32.00
2023-05-11T11:30:44.800Z,28.90
2023-05-11T11:33:35.168Z,29.10
2023-05-11T11:36:06.325Z,27.30
2023-05-11T11:38:57.244Z,26.10
2023-05-11T11:41:38.386Z,26.20
2023-05-11T11:44:23.869Z,24.90
2023-05-11T11:47:13.689Z,25.10
2023-05-11T11:49:46.853Z,23.30
2023-05-11T11:52:36.195Z,23.40
2023-05-11T11:55:07.908Z,23.90
2023-05-11T11:57:51.477Z,22.20
2023-05-11T12:00:27.710Z,24.00
2023-05-11T12:02:59.293Z,23.60
2023-05-11T12:05:31.703Z,23.00
2023-05-11T12:08:09.038Z,21.30
2023-05-11T12:10:40.153Z,24.00
2023-05-11T12:13:15.023Z,23.90
2023-05-11T12:15:48.554Z,24.70
2023-05-11T12:18:23.932Z,23.80
2023-05-11T12:20:55.013Z,24.50
2023-05-11T12:23:25.927Z,26.30
2023-05-11T12:26:04.111Z,26.70
2023-05-11T12:28:35.844Z,28.40
2023-05-11T12:31:09.326Z,27.50
2023-05-11T12:33:48.290Z,26.10
2023-05-11T12:36:20.941Z,27.80
2023-05-11T12:38:52.330Z,27.60
2023-05-11T12:41:24.000Z,28.30
2023-05-11T12:43:56.528Z,28.60
2023-05-11T12:46:30.210Z,28.40
2023-05-11T12:49:01.494Z,28.40
2023-05-11T12:51:48.551Z,29.70
2023-05-11T12:54:30.940Z,28.40
2023-05-11T12:57:02.879Z,34.90
2023-05-11T12:59:38.214Z,42.20
2023-05-11T13:02:16.750Z,49.40
2023-05-11T13:04:51.543Z,48.90
2023-05-11T13:07:27.880Z,55.60
2023-05-11T13:09:59.920Z,67.40
2023-05-11T13:12:32.779Z,77.80
2023-05-11T13:15:14.601Z,76.00
2023-05-11T13:17:48.120Z,81.70
2023-05-11T13:20:20.586Z,78.80
2023-05-11T13:22:52.687Z,82.30
2023-05-11T13:25:23.877Z,86.80
2023-05-11T13:27:55.914Z,88.50
2023-05-11T13:30:27.084Z,92.90
2023-05-11T13:33:06.125Z,95.30
2023-05-11T13:35:41.934Z,94.60
2023-05-11T13:38:13.255Z,93.00
2023-05-11T13:40:44.350Z,94.10
2023-05-11T13:43:15.442Z,94.90
2023-05-11T13:45:46.404Z,99.90
2023-05-11T13:48:19.982Z,99.90
2023-05-11T13:50:50.875Z,99.90
2023-05-11T13:53:22.057Z,99.90
2023-05-11T13:55:52.990Z,99.90
2023-05-11T13:58:26.850Z,99.90
2023-05-11T14:03:38.114Z,99.90
2023-05-11T14:06:09.506Z,99.90
2023-05-11T14:08:40.411Z,99.90
2023-05-11T14:11:11.248Z,99.90
2023-05-11T14:13:42.347Z,99.90
2023-05-11T14:16:16.077Z,99.90
2023-05-11T14:18:50.859Z,99.90
2023-05-11T14:21:21.866Z,99.90
2023-05-11T14:24:10.074Z,99.90
2023-05-11T14:26:42.858Z,99.90
2023-05-11T14:29:15.916Z,99.90
2023-05-11T14:31:47.512Z,99.90
2023-05-11T14:34:21.270Z,99.90
2023-05-11T14:36:52.461Z,99.90
2023-05-11T14:39:23.374Z,99.90
2023-05-11T14:41:54.283Z,99.90
2023-05-11T14:44:25.340Z,99.90
2023-05-11T14:46:56.443Z,99.90
2023-05-11T14:49:30.019Z,99.90
2023-05-11T14:52:00.985Z,99.90
2023-05-11T14:54:31.829Z,99.90
2023-05-11T14:57:02.646Z,99.90
2023-05-11T14:59:33.645Z,99.90
2023-05-11T15:02:05.141Z,99.90
2023-05-11T15:04:39.210Z,99.90
2023-05-11T15:07:10.177Z,99.90
2023-05-11T15:09:41.616Z,99.90
2023-05-11T15:12:15.596Z,99.90
2023-05-11T15:14:46.549Z,99.90
2023-05-11T15:17:17.848Z,99.90
2023-05-11T15:19:51.404Z,99.90
2023-05-11T15:22:22.593Z,99.90
2023-05-11T15:24:53.866Z,99.90
2023-05-11T15:27:24.920Z,99.90
2023-05-11T15:29:56.024Z,99.90
2023-05-11T15:32:26.843Z,99.90
2023-05-11T15:35:03.333Z,99.90
2023-05-11T15:37:34.299Z,99.90
2023-05-11T15:40:05.102Z,99.90
2023-05-11T15:42:35.993Z,99.90
2023-05-11T15:45:08.173Z,99.90
2023-05-11T15:47:39.257Z,99.90
2023-05-11T15:50:15.931Z,99.90
2023-05-11T15:52:46.772Z,99.90
2023-05-11T15:55:17.663Z,99.90
2023-05-11T15:57:48.447Z,99.90
2023-05-11T16:00:20.281Z,99.90
2023-05-11T16:02:51.466Z,99.90
2023-05-11T16:05:25.214Z,99.90
2023-05-11T16:07:56.066Z,99.90
2023-05-11T16:10:27.098Z,99.90
2023-05-11T16:13:01.690Z,99.90
2023-05-11T16:15:33.143Z,99.90
2023-05-11T16:18:05.126Z,99.90
2023-05-11T16:20:38.980Z,99.90
2023-05-11T16:23:09.964Z,99.90
2023-05-11T16:25:42.163Z,99.90
2023-05-11T16:28:13.145Z,99.90
2023-05-11T16:30:44.197Z,99.90
2023-05-11T16:33:17.823Z,99.90
2023-05-11T16:35:51.388Z,99.90
2023-05-11T16:38:23.754Z,99.90
2023-05-11T16:40:55.577Z,99.90
2023-05-11T16:43:26.421Z,99.90
2023-05-11T16:45:58.958Z,99.90
2023-05-11T16:48:29.917Z,99.90
2023-05-11T16:51:03.601Z,99.90
2023-05-11T16:53:34.614Z,99.90
2023-05-11T16:56:05.485Z,99.90
2023-05-11T16:58:36.482Z,99.90
2023-05-11T17:01:07.639Z,99.90
2023-05-11T17:03:38.713Z,99.90
2023-05-11T17:06:14.776Z,99.90
2023-05-11T17:08:45.629Z,99.90
2023-05-11T17:11:16.469Z,99.90
2023-05-11T17:13:47.466Z,99.90
2023-05-11T17:16:18.430Z,99.90
2023-05-11T17:18:49.360Z,99.90
2023-05-11T17:21:22.791Z,99.90
2023-05-11T17:23:53.607Z,99.90
2023-05-11T17:26:27.471Z,99.90
2023-05-11T17:29:00.656Z,99.90
2023-05-11T17:31:31.658Z,99.90
2023-05-11T17:34:03.301Z,99.90
2023-05-11T17:36:37.069Z,99.90
2023-05-11T17:39:08.254Z,99.90
2023-05-11T17:41:39.679Z,99.90
2023-05-11T17:44:10.530Z,99.90
2023-05-11T17:46:41.493Z,99.90
2023-05-11T17:49:12.778Z,99.90
2023-05-11T17:51:46.518Z,99.90
2023-05-11T17:54:17.488Z,99.90
2023-05-11T17:56:48.704Z,99.90
2023-05-11T17:59:21.022Z,99.90
2023-05-11T18:01:52.395Z,99.90
2023-05-11T18:04:23.336Z,99.90
2023-05-11T18:06:57.426Z,99.90
2023-05-11T18:09:28.549Z,99.90
2023-05-11T18:11:59.658Z,99.90
2023-05-11T18:14:30.562Z,99.90
2023-05-11T18:17:01.378Z,99.90
2023-05-11T18:19:32.460Z,99.90
2023-05-11T18:22:06.935Z,99.90
2023-05-11T18:24:37.727Z,99.90
2023-05-11T18:27:08.831Z,99.90
2023-05-11T18:29:41.155Z,99.90
2023-05-11T18:32:14.445Z,99.90
2023-05-11T18:34:46.502Z,99.90
2023-05-11T18:37:19.971Z,99.90
2023-05-11T18:39:50.933Z,99.90
2023-05-11T18:42:21.994Z,99.90
2023-05-11T18:44:56.902Z,99.90
2023-05-11T18:47:31.028Z,99.90
2023-05-11T18:50:01.995Z,99.90
2023-05-11T18:52:35.781Z,99.90
2023-05-11T18:55:09.171Z,99.90
2023-05-11T18:57:40.737Z,99.90
2023-05-11T19:00:13.639Z,99.90
2023-05-11T19:02:44.652Z,99.90
2023-05-11T19:05:18.861Z,99.90
2023-05-11T19:07:52.432Z,99.90
2023-05-11T19:10:24.672Z,99.90
2023-05-11T19:12:55.600Z,99.90
2023-05-11T19:15:26.572Z,99.90
2023-05-11T19:17:57.441Z,99.90
2023-05-11T19:20:28.631Z,99.90
2023-05-11T19:23:02.180Z,99.90
2023-05-11T19:25:33.221Z,99.90
2023-05-11T19:28:04.276Z,99.90
2023-05-11T19:30:35.223Z,99.90
2023-05-11T19:33:06.338Z,99.90
2023-05-11T19:35:37.149Z,99.90
2023-05-11T19:38:10.643Z,99.90
2023-05-11T19:43:15.687Z,99.90
2023-05-11T19:45:47.194Z,99.90
2023-05-11T19:48:19.173Z,99.90
2023-05-11T19:50:50.260Z,99.90
2023-05-11T19:53:23.780Z,99.90
2023-05-11T19:56:03.698Z,99.90
2023-05-11T19:58:34.472Z,99.90
2023-05-11T20:01:05.682Z,99.90
2023-05-11T20:03:36.883Z,99.90
2023-05-11T20:06:07.732Z,99.90
2023-05-11T20:08:41.780Z,99.90
2023-05-11T20:11:12.825Z,99.90
2023-05-11T20:13:44.121Z,99.90
2023-05-11T20:16:15.615Z,99.90
2023-05-11T20:18:46.599Z,99.90
2023-05-11T20:21:17.499Z,99.90
2023-05-11T20:23:50.874Z,99.90
2023-05-11T20:26:21.705Z,99.90
2023-05-11T20:28:52.532Z,99.90
2023-05-11T20:31:24.094Z,99.90
2023-05-11T20:36:29.285Z,99.90
2023-05-11T20:39:03.104Z,99.90
2023-05-11T20:41:34.201Z,99.90
2023-05-11T20:44:05.572Z,99.90
2023-05-11T20:46:36.564Z,99.90
2023-05-11T20:49:10.460Z,99.90
2023-05-11T20:51:41.306Z,99.90
2023-05-11T20:54:15.324Z,99.90
2023-05-11T20:56:46.179Z,99.90
2023-05-11T21:01:50.918Z,99.90
2023-05-11T21:04:24.920Z,99.90
2023-05-11T21:06:58.196Z,99.90
2023-05-11T21:09:31.757Z,99.90
2023-05-11T21:12:02.551Z,99.90
2023-05-11T21:14:33.427Z,99.90
2023-05-11T21:17:04.480Z,99.90
2023-05-11T21:19:35.354Z,99.90
2023-05-11T21:22:06.518Z,99.90
2023-05-11T21:24:41.283Z,99.90
2023-05-11T21:27:12.147Z,99.90
2023-05-11T21:29:43.245Z,99.90
2023-05-11T21:32:14.244Z,99.90
2023-05-11T21:34:45.195Z,99.90
2023-05-11T21:37:20.237Z,99.90
2023-05-11T21:39:54.211Z,99.90
2023-05-11T21:42:25.415Z,99.90
2023-05-11T21:44:56.329Z,99.90
2023-05-11T21:47:27.540Z,99.90
2023-05-11T21:49:58.536Z,99.90
2023-05-11T21:52:29.802Z,99.90
2023-05-11T21:55:03.322Z,99.90
2023-05-11T21:57:34.246Z,99.90
2023-05-11T22:00:05.341Z,99.90
2023-05-11T22:02:36.356Z,99.90
2023-05-11T22:05:09.271Z,99.90
2023-05-11T22:07:47.053Z,99.90
2023-05-11T22:10:20.923Z,99.90
2023-05-11T22:12:52.473Z,99.90
2023-05-11T22:15:23.576Z,99.90
2023-05-11T22:17:54.455Z,99.90
2023-05-11T22:20:25.630Z,99.90
2023-05-11T22:22:56.475Z,99.90
2023-05-11T22:25:30.449Z,99.90
2023-05-11T22:28:01.301Z,99.90
2023-05-11T22:30:32.197Z,99.90
2023-05-11T22:33:03.269Z,99.90
2023-05-11T22:35:34.262Z,99.90
2023-05-11T22:38:05.178Z,99.90
2023-05-11T22:40:38.521Z,99.90
2023-05-11T22:43:09.394Z,99.90
2023-05-11T22:45:40.321Z,99.90
2023-05-11T22:48:11.545Z,99.90
2023-05-11T22:50:47.699Z,99.90
2023-05-11T22:53:19.268Z,99.90
2023-05-11T22:55:52.787Z,99.90
2023-05-11T22:58:24.848Z,99.90
2023-05-11T23:00:56.581Z,99.90
2023-05-11T23:03:29.686Z,99.90
2023-05-11T23:06:00.578Z,99.90
2023-05-11T23:08:31.513Z,99.90
2023-05-11T23:11:05.073Z,99.90
2023-05-11T23:13:36.332Z,99.90
2023-05-11T23:16:08.010Z,99.90
2023-05-11T23:18:39.412Z,99.90
2023-05-11T23:21:10.523Z,99.90
2023-05-11T23:23:42.643Z,99.90
2023-05-11T23:26:16.074Z,99.90
2023-05-11T23:28:47.363Z,99.90
2023-05-11T23:31:18.271Z,99.90
2023-05-11T23:33:49.204Z,99.90
2023-05-11T23:36:20.084Z,99.90
2023-05-11T23:38:52.711Z,99.90
2023-05-11T23:41:26.302Z,99.90
2023-05-11T23:43:57.920Z,99.90
2023-05-11T23:46:29.039Z,99.90
2023-05-11T23:48:59.969Z,99.90
2023-05-11T23:51:30.854Z,99.90
2023-05-11T23:54:02.215Z,99.90
2023-05-11T23:56:35.894Z,99.90
2023-05-11T23:59:06.786Z,99.90
